sensor_id;sensor_type;location;lat;lon;timestamp;pressure;altitude;pressure_sealevel;temperature;humidity
11880;BME280;5999;43.256;27.816;2022-08-19T00:01:48;99650.59;;;25.59;100.00
11880;BME280;5999;43.256;27.816;2022-08-19T00:04:18;99654.69;;;25.55;100.00
11880;BME280;5999;43.256;27.816;2022-08-19T00:06:46;99652.53;;;25.51;100.00
11880;BME280;5999;43.256;27.816;2022-08-19T00:09:15;99650.13;;;25.56;100.00
11880;BME280;5999;43.256;27.816;2022-08-19T00:11:43;99663.59;;;25.56;100.00
11880;BME280;5999;43.256;27.816;2022-08-19T00:14:14;99663.91;;;25.61;100.00
11880;BME280;5999;43.256;27.816;2022-08-19T00:16:44;99669.66;;;25.58;100.00
11880;BME280;5999;43.256;27.816;2022-08-19T00:19:14;99662.59;;;25.57;100.00
11880;BME280;5999;43.256;27.816;2022-08-19T00:21:42;99663.16;;;25.52;100.00
11880;BME280;5999;43.256;27.816;2022-08-19T00:24:11;99659.97;;;25.49;100.00
11880;BME280;5999;43.256;27.816;2022-08-19T00:26:39;99653.59;;;25.41;100.00
11880;BME280;5999;43.256;27.816;2022-08-19T00:29:08;99658.75;;;25.51;100.00
11880;BME280;5999;43.256;27.816;2022-08-19T00:31:35;99664.75;;;25.38;100.00
11880;BME280;5999;43.256;27.816;2022-08-19T00:34:03;99662.34;;;25.43;100.00
11880;BME280;5999;43.256;27.816;2022-08-19T00:36:30;99652.22;;;25.45;100.00
11880;BME280;5999;43.256;27.816;2022-08-19T00:38:59;99651.94;;;25.40;100.00
11880;BME280;5999;43.256;27.816;2022-08-19T00:41:26;99653.44;;;25.43;100.00
11880;BME280;5999;43.256;27.816;2022-08-19T00:44:01;99653.97;;;25.38;100.00
11880;BME280;5999;43.256;27.816;2022-08-19T00:46:29;99660.31;;;25.45;100.00
11880;BME280;5999;43.256;27.816;2022-08-19T00:48:57;99659.31;;;25.46;100.00
11880;BME280;5999;43.256;27.816;2022-08-19T00:51:24;99662.00;;;25.46;100.00
11880;BME280;5999;43.256;27.816;2022-08-19T00:53:53;99662.00;;;25.46;100.00
11880;BME280;5999;43.256;27.816;2022-08-19T00:56:21;99667.41;;;25.46;100.00
11880;BME280;5999;43.256;27.816;2022-08-19T00:58:49;99667.47;;;25.38;100.00
11880;BME280;5999;43.256;27.816;2022-08-19T01:01:16;99660.59;;;25.36;100.00
11880;BME280;5999;43.256;27.816;2022-08-19T01:03:43;99666.81;;;25.36;100.00
11880;BME280;5999;43.256;27.816;2022-08-19T01:06:10;99669.84;;;25.33;100.00
11880;BME280;5999;43.256;27.816;2022-08-19T01:08:37;99659.72;;;25.35;100.00
11880;BME280;5999;43.256;27.816;2022-08-19T01:11:04;99667.03;;;25.26;100.00
11880;BME280;5999;43.256;27.816;2022-08-19T01:13:34;99657.47;;;25.16;100.00
11880;BME280;5999;43.256;27.816;2022-08-19T01:16:03;99661.84;;;25.17;100.00
11880;BME280;5999;43.256;27.816;2022-08-19T01:18:32;99655.78;;;25.23;100.00
11880;BME280;5999;43.256;27.816;2022-08-19T01:21:05;99657.16;;;25.11;100.00
11880;BME280;5999;43.256;27.816;2022-08-19T01:23:35;99658.03;;;25.11;100.00
11880;BME280;5999;43.256;27.816;2022-08-19T01:26:16;99646.72;;;25.16;100.00
11880;BME280;5999;43.256;27.816;2022-08-19T01:28:45;99653.97;;;25.15;100.00
11880;BME280;5999;43.256;27.816;2022-08-19T01:31:16;99651.94;;;25.17;100.00
11880;BME280;5999;43.256;27.816;2022-08-19T01:33:44;99662.69;;;25.17;100.00
11880;BME280;5999;43.256;27.816;2022-08-19T01:36:16;99660.31;;;25.22;100.00
11880;BME280;5999;43.256;27.816;2022-08-19T01:38:49;99665.19;;;25.19;100.00
11880;BME280;5999;43.256;27.816;2022-08-19T01:41:18;99663.19;;;25.21;100.00
11880;BME280;5999;43.256;27.816;2022-08-19T01:43:45;99663.88;;;25.15;100.00
11880;BME280;5999;43.256;27.816;2022-08-19T01:46:12;99649.75;;;25.13;100.00
11880;BME280;5999;43.256;27.816;2022-08-19T01:48:42;99650.78;;;25.12;100.00
11880;BME280;5999;43.256;27.816;2022-08-19T01:51:10;99648.19;;;25.18;100.00
11880;BME280;5999;43.256;27.816;2022-08-19T01:53:38;99655.19;;;25.04;100.00
11880;BME280;5999;43.256;27.816;2022-08-19T01:56:07;99642.09;;;25.01;100.00
11880;BME280;5999;43.256;27.816;2022-08-19T01:58:38;99641.59;;;24.98;100.00
11880;BME280;5999;43.256;27.816;2022-08-19T02:01:07;99638.25;;;24.96;100.00
11880;BME280;5999;43.256;27.816;2022-08-19T02:03:34;99644.47;;;24.96;100.00
11880;BME280;5999;43.256;27.816;2022-08-19T02:06:02;99649.59;;;24.83;100.00
11880;BME280;5999;43.256;27.816;2022-08-19T02:08:33;99644.88;;;24.85;100.00
11880;BME280;5999;43.256;27.816;2022-08-19T02:11:01;99642.19;;;24.85;100.00
11880;BME280;5999;43.256;27.816;2022-08-19T02:13:29;99632.19;;;24.71;100.00
11880;BME280;5999;43.256;27.816;2022-08-19T02:15:56;99639.53;;;24.77;100.00
11880;BME280;5999;43.256;27.816;2022-08-19T02:18:23;99638.88;;;24.75;100.00
11880;BME280;5999;43.256;27.816;2022-08-19T02:20:50;99644.97;;;24.69;100.00
11880;BME280;5999;43.256;27.816;2022-08-19T02:23:17;99637.84;;;24.76;100.00
11880;BME280;5999;43.256;27.816;2022-08-19T02:25:46;99629.94;;;24.74;100.00
11880;BME280;5999;43.256;27.816;2022-08-19T02:28:13;99625.06;;;24.78;100.00
11880;BME280;5999;43.256;27.816;2022-08-19T02:30:42;99627.22;;;24.82;100.00
11880;BME280;5999;43.256;27.816;2022-08-19T02:33:09;99626.38;;;24.82;100.00
11880;BME280;5999;43.256;27.816;2022-08-19T02:35:36;99629.06;;;24.82;100.00
11880;BME280;5999;43.256;27.816;2022-08-19T02:38:03;99630.31;;;24.71;100.00
11880;BME280;5999;43.256;27.816;2022-08-19T02:40:52;99632.84;;;24.73;100.00
11880;BME280;5999;43.256;27.816;2022-08-19T02:43:20;99632.84;;;24.73;100.00
11880;BME280;5999;43.256;27.816;2022-08-19T02:45:48;99626.47;;;24.65;100.00
11880;BME280;5999;43.256;27.816;2022-08-19T02:48:16;99632.84;;;24.73;100.00
11880;BME280;5999;43.256;27.816;2022-08-19T02:50:44;99635.00;;;24.77;100.00
11880;BME280;5999;43.256;27.816;2022-08-19T02:53:11;99634.16;;;24.77;100.00
11880;BME280;5999;43.256;27.816;2022-08-19T02:55:43;99637.19;;;24.74;100.00
11880;BME280;5999;43.256;27.816;2022-08-19T02:58:11;99629.13;;;24.74;100.00
11880;BME280;5999;43.256;27.816;2022-08-19T03:00:42;99634.16;;;24.77;100.00
11880;BME280;5999;43.256;27.816;2022-08-19T03:03:10;99631.31;;;24.70;100.00
11880;BME280;5999;43.256;27.816;2022-08-19T03:05:37;99632.84;;;24.73;100.00
11880;BME280;5999;43.256;27.816;2022-08-19T03:08:05;99634.25;;;24.60;100.00
11880;BME280;5999;43.256;27.816;2022-08-19T03:10:32;99645.88;;;24.53;100.00
11880;BME280;5999;43.256;27.816;2022-08-19T03:13:02;99646.38;;;24.48;100.00
11880;BME280;5999;43.256;27.816;2022-08-19T03:15:29;99654.13;;;24.43;100.00
11880;BME280;5999;43.256;27.816;2022-08-19T03:17:56;99653.59;;;24.56;100.00
11880;BME280;5999;43.256;27.816;2022-08-19T03:20:24;99662.19;;;24.51;100.00
11880;BME280;5999;43.256;27.816;2022-08-19T03:22:51;99664.19;;;24.49;100.00
11880;BME280;5999;43.256;27.816;2022-08-19T03:25:18;99660.84;;;24.47;100.00
11880;BME280;5999;43.256;27.816;2022-08-19T03:27:45;99666.59;;;24.44;100.00
11880;BME280;5999;43.256;27.816;2022-08-19T03:30:15;99669.81;;;24.23;100.00
11880;BME280;5999;43.256;27.816;2022-08-19T03:32:42;99664.69;;;23.97;100.00
11880;BME280;5999;43.256;27.816;2022-08-19T03:35:08;99675.78;;;23.94;100.00
11880;BME280;5999;43.256;27.816;2022-08-19T03:37:36;99668.00;;;24.15;100.00
11880;BME280;5999;43.256;27.816;2022-08-19T03:40:04;99667.66;;;24.18;100.00
11880;BME280;5999;43.256;27.816;2022-08-19T03:42:31;99676.41;;;24.12;100.00
11880;BME280;5999;43.256;27.816;2022-08-19T03:44:58;99672.72;;;24.13;100.00
11880;BME280;5999;43.256;27.816;2022-08-19T03:47:25;99672.72;;;24.21;100.00
11880;BME280;5999;43.256;27.816;2022-08-19T03:49:51;99679.75;;;24.22;100.00
11880;BME280;5999;43.256;27.816;2022-08-19T03:52:18;99687.81;;;24.31;100.00
11880;BME280;5999;43.256;27.816;2022-08-19T03:54:46;99700.22;;;24.40;100.00
11880;BME280;5999;43.256;27.816;2022-08-19T03:57:13;99691.09;;;24.49;100.00
11880;BME280;5999;43.256;27.816;2022-08-19T03:59:40;99695.97;;;24.45;100.00
11880;BME280;5999;43.256;27.816;2022-08-19T04:02:09;99695.16;;;24.45;100.00
11880;BME280;5999;43.256;27.816;2022-08-19T04:04:37;99697.84;;;24.53;100.00
11880;BME280;5999;43.256;27.816;2022-08-19T04:07:05;99699.19;;;24.57;100.00
11880;BME280;5999;43.256;27.816;2022-08-19T04:09:34;99685.00;;;24.72;100.00
11880;BME280;5999;43.256;27.816;2022-08-19T04:12:04;99691.38;;;24.79;100.00
11880;BME280;5999;43.256;27.816;2022-08-19T04:14:32;99696.22;;;24.83;100.00
11880;BME280;5999;43.256;27.816;2022-08-19T04:17:00;99695.69;;;24.88;100.00
11880;BME280;5999;43.256;27.816;2022-08-19T04:19:30;99706.03;;;25.08;100.00
11880;BME280;5999;43.256;27.816;2022-08-19T04:21:58;99705.31;;;25.14;100.00
11880;BME280;5999;43.256;27.816;2022-08-19T04:24:25;99706.47;;;25.19;100.00
11880;BME280;5999;43.256;27.816;2022-08-19T04:26:52;99703.56;;;25.29;100.00
11880;BME280;5999;43.256;27.816;2022-08-19T04:29:22;99719.22;;;25.34;100.00
11880;BME280;5999;43.256;27.816;2022-08-19T04:31:52;99712.44;;;25.38;100.00
11880;BME280;5999;43.256;27.816;2022-08-19T04:34:21;99715.09;;;25.46;100.00
11880;BME280;5999;43.256;27.816;2022-08-19T04:36:50;99707.59;;;25.56;100.00
11880;BME280;5999;43.256;27.816;2022-08-19T04:39:20;99707.75;;;25.55;100.00
11880;BME280;5999;43.256;27.816;2022-08-19T04:41:47;99712.78;;;25.58;100.00
11880;BME280;5999;43.256;27.816;2022-08-19T04:44:35;99721.19;;;25.63;100.00
11880;BME280;5999;43.256;27.816;2022-08-19T04:47:03;99726.44;;;25.79;100.00
11880;BME280;5999;43.256;27.816;2022-08-19T04:49:31;99714.34;;;25.75;100.00
11880;BME280;5999;43.256;27.816;2022-08-19T04:51:58;99715.59;;;25.88;100.00
11880;BME280;5999;43.256;27.816;2022-08-19T04:54:25;99721.09;;;25.94;100.00
11880;BME280;5999;43.256;27.816;2022-08-19T04:56:53;99723.97;;;25.93;100.00
11880;BME280;5999;43.256;27.816;2022-08-19T04:59:20;99729.44;;;26.08;100.00
11880;BME280;5999;43.256;27.816;2022-08-19T05:01:49;99725.53;;;26.10;100.00
11880;BME280;5999;43.256;27.816;2022-08-19T05:04:17;99726.50;;;26.32;100.00
11880;BME280;5999;43.256;27.816;2022-08-19T05:06:45;99720.06;;;26.48;100.00
11880;BME280;5999;43.256;27.816;2022-08-19T05:09:13;99728.03;;;26.64;100.00
11880;BME280;5999;43.256;27.816;2022-08-19T05:11:42;99727.63;;;26.68;100.00
11880;BME280;5999;43.256;27.816;2022-08-19T05:14:09;99733.31;;;26.73;100.00
11880;BME280;5999;43.256;27.816;2022-08-19T05:16:38;99740.56;;;26.87;100.00
11880;BME280;5999;43.256;27.816;2022-08-19T05:19:06;99736.25;;;27.08;100.00
11880;BME280;5999;43.256;27.816;2022-08-19T05:21:51;99729.13;;;27.36;100.00
11880;BME280;5999;43.256;27.816;2022-08-19T05:24:36;99730.81;;;27.59;100.00
11880;BME280;5999;43.256;27.816;2022-08-19T05:27:03;99734.47;;;27.51;100.00
11880;BME280;5999;43.256;27.816;2022-08-19T05:29:32;99724.81;;;27.63;100.00
11880;BME280;5999;43.256;27.816;2022-08-19T05:32:00;99723.84;;;27.93;100.00
11880;BME280;5999;43.256;27.816;2022-08-19T05:34:28;99725.72;;;28.20;100.00
11880;BME280;5999;43.256;27.816;2022-08-19T05:36:57;99725.88;;;28.40;100.00
11880;BME280;5999;43.256;27.816;2022-08-19T05:39:26;99725.00;;;28.75;100.00
11880;BME280;5999;43.256;27.816;2022-08-19T05:41:56;99720.59;;;29.09;100.00
11880;BME280;5999;43.256;27.816;2022-08-19T05:44:25;99720.50;;;29.43;100.00
11880;BME280;5999;43.256;27.816;2022-08-19T05:46:53;99718.41;;;29.45;100.00
11880;BME280;5999;43.256;27.816;2022-08-19T05:49:22;99716.38;;;29.94;100.00
11880;BME280;5999;43.256;27.816;2022-08-19T05:51:50;99713.06;;;30.32;100.00
11880;BME280;5999;43.256;27.816;2022-08-19T05:54:18;99715.94;;;30.44;100.00
11880;BME280;5999;43.256;27.816;2022-08-19T05:56:45;99713.81;;;30.59;100.00
11880;BME280;5999;43.256;27.816;2022-08-19T05:59:15;99722.22;;;30.38;100.00
11880;BME280;5999;43.256;27.816;2022-08-19T06:01:44;99720.28;;;30.65;100.00
11880;BME280;5999;43.256;27.816;2022-08-19T06:04:13;99720.72;;;30.55;100.00
11880;BME280;5999;43.256;27.816;2022-08-19T06:06:41;99721.66;;;30.94;100.00
11880;BME280;5999;43.256;27.816;2022-08-19T06:09:08;99725.91;;;30.63;100.00
11880;BME280;5999;43.256;27.816;2022-08-19T06:11:39;99718.78;;;30.62;100.00
11880;BME280;5999;43.256;27.816;2022-08-19T06:14:08;99712.50;;;30.69;100.00
11880;BME280;5999;43.256;27.816;2022-08-19T06:16:37;99707.66;;;31.29;100.00
11880;BME280;5999;43.256;27.816;2022-08-19T06:19:06;99713.84;;;31.43;98.79
11880;BME280;5999;43.256;27.816;2022-08-19T06:21:35;99713.09;;;31.29;99.23
11880;BME280;5999;43.256;27.816;2022-08-19T06:24:04;99704.22;;;32.04;99.81
11880;BME280;5999;43.256;27.816;2022-08-19T06:26:33;99706.03;;;31.85;95.81
11880;BME280;5999;43.256;27.816;2022-08-19T06:29:00;99711.56;;;32.22;91.48
11880;BME280;5999;43.256;27.816;2022-08-19T06:31:29;99698.34;;;32.26;91.56
11880;BME280;5999;43.256;27.816;2022-08-19T06:33:57;99707.25;;;32.58;89.86
11880;BME280;5999;43.256;27.816;2022-08-19T06:36:28;99705.94;;;32.42;88.96
11880;BME280;5999;43.256;27.816;2022-08-19T06:38:58;99704.97;;;32.92;87.29
11880;BME280;5999;43.256;27.816;2022-08-19T06:41:25;99700.00;;;33.19;85.33
11880;BME280;5999;43.256;27.816;2022-08-19T06:43:54;99699.88;;;33.56;80.92
11880;BME280;5999;43.256;27.816;2022-08-19T06:46:21;99709.19;;;33.78;81.21
11880;BME280;5999;43.256;27.816;2022-08-19T06:48:48;99711.06;;;33.66;78.81
11880;BME280;5999;43.256;27.816;2022-08-19T06:51:17;99718.34;;;33.84;76.79
11880;BME280;5999;43.256;27.816;2022-08-19T06:53:45;99705.56;;;34.20;74.52
11880;BME280;5999;43.256;27.816;2022-08-19T06:56:13;99714.19;;;34.05;74.36
11880;BME280;5999;43.256;27.816;2022-08-19T06:58:40;99706.13;;;33.87;76.30
11880;BME280;5999;43.256;27.816;2022-08-19T07:01:09;99710.03;;;34.61;73.71
11880;BME280;5999;43.256;27.816;2022-08-19T07:03:37;99706.22;;;34.62;70.70
11880;BME280;5999;43.256;27.816;2022-08-19T07:06:05;99715.31;;;34.28;71.66
11880;BME280;5999;43.256;27.816;2022-08-19T07:08:34;99714.69;;;34.14;72.61
11880;BME280;5999;43.256;27.816;2022-08-19T07:11:05;99715.66;;;34.19;73.82
11880;BME280;5999;43.256;27.816;2022-08-19T07:13:33;99705.66;;;34.01;74.39
11880;BME280;5999;43.256;27.816;2022-08-19T07:16:04;99703.38;;;33.87;74.70
11880;BME280;5999;43.256;27.816;2022-08-19T07:18:32;99691.03;;;34.08;74.38
11880;BME280;5999;43.256;27.816;2022-08-19T07:21:03;99692.97;;;34.31;73.74
11880;BME280;5999;43.256;27.816;2022-08-19T07:23:30;99692.72;;;34.96;71.40
11880;BME280;5999;43.256;27.816;2022-08-19T07:25:57;99690.81;;;34.97;69.15
11880;BME280;5999;43.256;27.816;2022-08-19T07:28:24;99695.78;;;34.59;68.67
11880;BME280;5999;43.256;27.816;2022-08-19T07:30:52;99700.59;;;35.21;67.56
11880;BME280;5999;43.256;27.816;2022-08-19T07:33:19;99704.63;;;35.48;65.85
11880;BME280;5999;43.256;27.816;2022-08-19T07:35:46;99690.59;;;35.61;62.45
11880;BME280;5999;43.256;27.816;2022-08-19T07:38:13;99699.53;;;35.68;64.32
11880;BME280;5999;43.256;27.816;2022-08-19T07:40:41;99707.41;;;35.81;61.63
11880;BME280;5999;43.256;27.816;2022-08-19T07:43:09;99706.16;;;35.89;62.08
11880;BME280;5999;43.256;27.816;2022-08-19T07:45:36;99710.47;;;35.85;59.49
11880;BME280;5999;43.256;27.816;2022-08-19T07:48:03;99708.00;;;36.00;58.80
11880;BME280;5999;43.256;27.816;2022-08-19T07:50:30;99707.09;;;35.78;59.30
11880;BME280;5999;43.256;27.816;2022-08-19T07:53:01;99704.28;;;36.29;59.21
11880;BME280;5999;43.256;27.816;2022-08-19T07:55:28;99695.75;;;36.64;57.95
11880;BME280;5999;43.256;27.816;2022-08-19T07:57:55;99698.34;;;37.20;55.71
11880;BME280;5999;43.256;27.816;2022-08-19T08:00:22;99696.50;;;36.37;55.10
11880;BME280;5999;43.256;27.816;2022-08-19T08:02:49;99691.44;;;37.17;56.05
11880;BME280;5999;43.256;27.816;2022-08-19T08:05:16;99686.09;;;37.33;53.65
11880;BME280;5999;43.256;27.816;2022-08-19T08:08:02;99696.78;;;36.80;52.01
11880;BME280;5999;43.256;27.816;2022-08-19T08:10:47;99686.59;;;37.03;51.82
11880;BME280;5999;43.256;27.816;2022-08-19T08:13:14;99673.06;;;37.18;51.18
11880;BME280;5999;43.256;27.816;2022-08-19T08:15:42;99685.06;;;37.66;50.32
11880;BME280;5999;43.256;27.816;2022-08-19T08:18:11;99679.19;;;37.25;49.59
11880;BME280;5999;43.256;27.816;2022-08-19T08:20:38;99685.56;;;37.63;47.57
11880;BME280;5999;43.256;27.816;2022-08-19T08:23:05;99685.06;;;37.66;47.63
11880;BME280;5999;43.256;27.816;2022-08-19T08:25:57;99678.75;;;37.38;46.54
11880;BME280;5999;43.256;27.816;2022-08-19T08:28:26;99686.50;;;38.16;46.60
11880;BME280;5999;43.256;27.816;2022-08-19T08:30:54;99681.22;;;38.05;46.69
11880;BME280;5999;43.256;27.816;2022-08-19T08:33:23;99681.56;;;38.18;46.82
11880;BME280;5999;43.256;27.816;2022-08-19T08:35:50;99680.38;;;38.04;46.40
11880;BME280;5999;43.256;27.816;2022-08-19T08:38:19;99672.19;;;38.09;46.48
11880;BME280;5999;43.256;27.816;2022-08-19T08:40:49;99679.72;;;37.87;46.42
11880;BME280;5999;43.256;27.816;2022-08-19T08:43:27;99672.84;;;37.89;46.10
11880;BME280;5999;43.256;27.816;2022-08-19T08:46:00;99663.50;;;38.33;45.18
11880;BME280;5999;43.256;27.816;2022-08-19T08:48:36;99669.28;;;38.31;45.25
11880;BME280;5999;43.256;27.816;2022-08-19T08:51:08;99664.13;;;37.60;45.36
11880;BME280;5999;43.256;27.816;2022-08-19T08:53:37;99659.81;;;38.12;44.26
11880;BME280;5999;43.256;27.816;2022-08-19T08:56:06;99669.28;;;38.31;45.71
11880;BME280;5999;43.256;27.816;2022-08-19T08:58:46;99681.88;;;38.80;42.72
11880;BME280;5999;43.256;27.816;2022-08-19T09:01:15;99670.97;;;39.16;42.70
11880;BME280;5999;43.256;27.816;2022-08-19T09:03:43;99671.59;;;39.44;42.84
11880;BME280;5999;43.256;27.816;2022-08-19T09:06:14;99673.72;;;39.06;42.35
11880;BME280;5999;43.256;27.816;2022-08-19T09:08:52;99672.25;;;38.77;42.57
11880;BME280;5999;43.256;27.816;2022-08-19T09:11:33;99670.41;;;39.04;42.50
11880;BME280;5999;43.256;27.816;2022-08-19T09:14:10;99681.63;;;38.87;41.39
11880;BME280;5999;43.256;27.816;2022-08-19T09:16:41;99678.19;;;39.53;42.05
11880;BME280;5999;43.256;27.816;2022-08-19T09:19:09;99676.00;;;39.45;41.27
11880;BME280;5999;43.256;27.816;2022-08-19T09:21:36;99683.44;;;39.60;40.28
11880;BME280;5999;43.256;27.816;2022-08-19T09:24:06;99685.75;;;38.79;41.01
11880;BME280;5999;43.256;27.816;2022-08-19T09:26:33;99678.13;;;39.12;41.12
11880;BME280;5999;43.256;27.816;2022-08-19T09:29:01;99684.47;;;39.07;41.45
11880;BME280;5999;43.256;27.816;2022-08-19T09:31:31;99688.88;;;39.08;41.57
11880;BME280;5999;43.256;27.816;2022-08-19T09:33:59;99682.59;;;40.00;41.11
11880;BME280;5999;43.256;27.816;2022-08-19T09:36:28;99682.06;;;39.93;39.01
11880;BME280;5999;43.256;27.816;2022-08-19T09:38:56;99687.03;;;39.50;39.61
11880;BME280;5999;43.256;27.816;2022-08-19T09:41:26;99688.59;;;39.15;40.05
11880;BME280;5999;43.256;27.816;2022-08-19T09:43:55;99686.19;;;39.44;40.63
11880;BME280;5999;43.256;27.816;2022-08-19T09:46:23;99674.59;;;39.68;40.72
11880;BME280;5999;43.256;27.816;2022-08-19T09:48:52;99686.13;;;40.36;39.42
11880;BME280;5999;43.256;27.816;2022-08-19T09:51:21;99675.88;;;40.42;39.07
11880;BME280;5999;43.256;27.816;2022-08-19T09:53:50;99680.31;;;40.28;39.03
11880;BME280;5999;43.256;27.816;2022-08-19T09:56:19;99679.88;;;39.54;39.52
11880;BME280;5999;43.256;27.816;2022-08-19T09:58:47;99686.94;;;40.42;37.52
11880;BME280;5999;43.256;27.816;2022-08-19T10:01:18;99677.06;;;39.80;37.85
11880;BME280;5999;43.256;27.816;2022-08-19T10:03:48;99690.59;;;40.02;37.69
11880;BME280;5999;43.256;27.816;2022-08-19T10:06:16;99688.13;;;39.90;37.91
11880;BME280;5999;43.256;27.816;2022-08-19T10:08:43;99692.50;;;40.11;37.57
11880;BME280;5999;43.256;27.816;2022-08-19T10:11:11;99685.09;;;40.87;36.96
11880;BME280;5999;43.256;27.816;2022-08-19T10:13:38;99677.25;;;40.45;37.14
11880;BME280;5999;43.256;27.816;2022-08-19T10:16:08;99692.25;;;40.88;37.46
11880;BME280;5999;43.256;27.816;2022-08-19T10:18:36;99686.88;;;40.47;36.66
11880;BME280;5999;43.256;27.816;2022-08-19T10:21:06;99692.59;;;40.71;36.34
11880;BME280;5999;43.256;27.816;2022-08-19T10:23:35;99687.34;;;40.70;36.38
11880;BME280;5999;43.256;27.816;2022-08-19T10:26:03;99688.69;;;39.87;37.64
11880;BME280;5999;43.256;27.816;2022-08-19T10:28:32;99691.94;;;40.14;36.46
11880;BME280;5999;43.256;27.816;2022-08-19T10:31:05;99690.28;;;40.13;37.51
11880;BME280;5999;43.256;27.816;2022-08-19T10:33:33;99681.47;;;40.06;36.22
11880;BME280;5999;43.256;27.816;2022-08-19T10:36:01;99688.09;;;40.00;36.04
11880;BME280;5999;43.256;27.816;2022-08-19T10:38:27;99684.53;;;39.94;37.22
11880;BME280;5999;43.256;27.816;2022-08-19T10:40:55;99673.69;;;40.39;36.54
11880;BME280;5999;43.256;27.816;2022-08-19T10:43:22;99696.50;;;40.60;36.89
11880;BME280;5999;43.256;27.816;2022-08-19T10:45:52;99684.72;;;40.39;36.95
11880;BME280;5999;43.256;27.816;2022-08-19T10:48:22;99680.59;;;40.26;37.01
11880;BME280;5999;43.256;27.816;2022-08-19T10:50:49;99693.59;;;40.96;35.63
11880;BME280;5999;43.256;27.816;2022-08-19T10:53:34;99692.44;;;41.47;35.00
11880;BME280;5999;43.256;27.816;2022-08-19T10:56:01;99686.84;;;41.12;35.26
11880;BME280;5999;43.256;27.816;2022-08-19T10:58:46;99700.06;;;40.66;34.83
11880;BME280;5999;43.256;27.816;2022-08-19T11:01:15;99690.63;;;40.87;35.04
11880;BME280;5999;43.256;27.816;2022-08-19T11:03:42;99691.78;;;40.71;35.88
11880;BME280;5999;43.256;27.816;2022-08-19T11:06:11;99683.56;;;41.10;35.24
11880;BME280;5999;43.256;27.816;2022-08-19T11:08:38;99696.75;;;40.74;34.84
11880;BME280;5999;43.256;27.816;2022-08-19T11:11:06;99695.66;;;40.60;33.89
11880;BME280;5999;43.256;27.816;2022-08-19T11:13:35;99695.78;;;40.34;34.11
11880;BME280;5999;43.256;27.816;2022-08-19T11:16:06;99684.59;;;41.25;34.66
11880;BME280;5999;43.256;27.816;2022-08-19T11:18:35;99679.16;;;41.49;33.82
11880;BME280;5999;43.256;27.816;2022-08-19T11:21:11;99690.97;;;40.65;35.08
11880;BME280;5999;43.256;27.816;2022-08-19T11:23:38;99685.44;;;40.60;34.11
11880;BME280;5999;43.256;27.816;2022-08-19T11:26:06;99683.34;;;40.26;34.24
11880;BME280;5999;43.256;27.816;2022-08-19T11:28:33;99677.75;;;40.52;33.21
11880;BME280;5999;43.256;27.816;2022-08-19T11:31:00;99662.91;;;40.37;34.08
11880;BME280;5999;43.256;27.816;2022-08-19T11:33:30;99659.19;;;40.68;33.93
11880;BME280;5999;43.256;27.816;2022-08-19T11:35:58;99655.22;;;40.94;32.46
11880;BME280;5999;43.256;27.816;2022-08-19T11:38:26;99664.09;;;41.31;31.60
11880;BME280;5999;43.256;27.816;2022-08-19T11:40:57;99653.63;;;41.62;32.75
11880;BME280;5999;43.256;27.816;2022-08-19T11:43:24;99656.41;;;41.62;33.00
11880;BME280;5999;43.256;27.816;2022-08-19T11:45:53;99665.38;;;41.44;31.66
11880;BME280;5999;43.256;27.816;2022-08-19T11:48:20;99667.22;;;41.53;31.46
11880;BME280;5999;43.256;27.816;2022-08-19T11:50:48;99658.97;;;42.12;31.22
11880;BME280;5999;43.256;27.816;2022-08-19T11:53:16;99657.69;;;42.28;31.50
11880;BME280;5999;43.256;27.816;2022-08-19T11:55:45;99661.47;;;40.55;32.21
11880;BME280;5999;43.256;27.816;2022-08-19T11:58:14;99664.91;;;40.92;32.47
11880;BME280;5999;43.256;27.816;2022-08-19T12:00:41;99657.09;;;37.74;47.23
11880;BME280;5999;43.256;27.816;2022-08-19T12:03:11;99674.25;;;37.59;53.26
11880;BME280;5999;43.256;27.816;2022-08-19T12:05:39;99670.25;;;33.29;82.27
11880;BME280;5999;43.256;27.816;2022-08-19T12:08:06;99676.53;;;32.26;100.00
11880;BME280;5999;43.256;27.816;2022-08-19T12:10:34;99652.81;;;32.70;100.00
11880;BME280;5999;43.256;27.816;2022-08-19T12:13:02;99652.41;;;31.86;100.00
11880;BME280;5999;43.256;27.816;2022-08-19T12:15:29;99650.25;;;31.44;100.00
11880;BME280;5999;43.256;27.816;2022-08-19T12:17:56;99654.25;;;31.03;100.00
11880;BME280;5999;43.256;27.816;2022-08-19T12:20:24;99673.34;;;31.28;100.00
11880;BME280;5999;43.256;27.816;2022-08-19T12:22:52;99665.59;;;30.87;100.00
11880;BME280;5999;43.256;27.816;2022-08-19T12:25:19;99649.53;;;30.13;100.00
11880;BME280;5999;43.256;27.816;2022-08-19T12:27:46;99660.16;;;30.87;100.00
11880;BME280;5999;43.256;27.816;2022-08-19T12:30:14;99664.41;;;31.21;100.00
11880;BME280;5999;43.256;27.816;2022-08-19T12:32:41;99651.00;;;30.81;100.00
11880;BME280;5999;43.256;27.816;2022-08-19T12:35:08;99657.00;;;30.38;100.00
11880;BME280;5999;43.256;27.816;2022-08-19T12:37:38;99663.72;;;30.15;100.00
11880;BME280;5999;43.256;27.816;2022-08-19T12:40:06;99660.22;;;29.55;100.00
11880;BME280;5999;43.256;27.816;2022-08-19T12:42:33;99667.09;;;29.97;100.00
11880;BME280;5999;43.256;27.816;2022-08-19T12:45:00;99658.94;;;29.97;100.00
11880;BME280;5999;43.256;27.816;2022-08-19T12:47:28;99644.28;;;30.32;100.00
11880;BME280;5999;43.256;27.816;2022-08-19T12:49:56;99656.78;;;30.53;100.00
11880;BME280;5999;43.256;27.816;2022-08-19T12:52:24;99648.69;;;30.19;100.00
11880;BME280;5999;43.256;27.816;2022-08-19T12:54:54;99653.28;;;30.05;100.00
11880;BME280;5999;43.256;27.816;2022-08-19T12:57:37;99660.00;;;29.70;100.00
11880;BME280;5999;43.256;27.816;2022-08-19T13:00:07;99658.78;;;29.72;100.00
11880;BME280;5999;43.256;27.816;2022-08-19T13:02:52;99658.13;;;30.10;100.00
11880;BME280;5999;43.256;27.816;2022-08-19T13:05:22;99660.41;;;29.53;100.00